createdAt,value
2022-09-16T00:00:56.381Z,65.24
2022-09-16T00:03:23.578Z,65.59
2022-09-16T00:05:53.447Z,65.36
2022-09-16T00:08:22.148Z,65.34
2022-09-16T00:10:49.770Z,64.95
2022-09-16T00:13:17.493Z,65.01
2022-09-16T00:15:46.899Z,65.00
2022-09-16T00:18:14.756Z,65.25
2022-09-16T00:20:51.688Z,64.87
2022-09-16T00:23:19.930Z,64.70
2022-09-16T00:25:55.592Z,64.72
2022-09-16T00:28:23.912Z,65.08
2022-09-16T00:30:51.458Z,65.31
2022-09-16T00:33:20.173Z,65.24
2022-09-16T00:35:47.839Z,65.41
2022-09-16T00:38:15.313Z,65.05
2022-09-16T00:40:50.384Z,64.80
2022-09-16T00:43:19.853Z,65.18
2022-09-16T00:45:56.372Z,65.03
2022-09-16T00:48:26.451Z,65.36
2022-09-16T00:51:06.316Z,65.13
2022-09-16T00:53:43.212Z,65.33
2022-09-16T00:56:13.290Z,65.17
2022-09-16T00:58:47.932Z,65.43
2022-09-16T01:01:15.409Z,65.44
2022-09-16T01:03:52.215Z,65.38
2022-09-16T01:06:20.971Z,65.46
2022-09-16T01:08:50.732Z,65.34
2022-09-16T01:11:18.179Z,65.42
2022-09-16T01:13:47.682Z,65.44
2022-09-16T01:16:26.550Z,65.54
2022-09-16T01:19:19.252Z,65.64
2022-09-16T01:22:15.263Z,65.51
2022-09-16T01:25:19.194Z,65.40
2022-09-16T01:28:15.771Z,65.57
2022-09-16T01:31:02.811Z,65.29
2022-09-16T01:34:03.987Z,65.44
2022-09-16T01:37:18.064Z,65.36
2022-09-16T01:40:02.333Z,65.30
2022-09-16T01:42:38.762Z,65.54
2022-09-16T01:45:18.982Z,65.77
2022-09-16T01:47:46.068Z,65.87
2022-09-16T01:50:30.113Z,65.92
2022-09-16T01:53:20.854Z,65.96
2022-09-16T01:55:56.108Z,66.20
2022-09-16T01:58:26.288Z,65.83
2022-09-16T02:01:02.160Z,66.16
2022-09-16T02:03:33.805Z,65.78
2022-09-16T02:06:09.398Z,65.73
2022-09-16T02:08:59.401Z,66.09
2022-09-16T02:11:26.985Z,66.12
2022-09-16T02:14:07.041Z,66.03
2022-09-16T02:16:57.362Z,66.14
2022-09-16T02:19:39.192Z,66.06
2022-09-16T02:22:12.933Z,66.37
2022-09-16T02:24:43.085Z,66.24
2022-09-16T02:27:16.820Z,66.49
2022-09-16T02:30:12.488Z,66.02
2022-09-16T02:32:46.812Z,66.63
2022-09-16T02:35:21.207Z,66.49
2022-09-16T02:38:14.552Z,66.60
2022-09-16T02:40:49.272Z,66.52
2022-09-16T02:43:17.379Z,66.39
2022-09-16T02:46:16.366Z,66.41
2022-09-16T02:48:55.536Z,66.74
2022-09-16T02:51:47.269Z,66.55
2022-09-16T02:54:40.416Z,66.51
2022-09-16T02:57:08.114Z,66.51
2022-09-16T02:59:35.523Z,66.54
2022-09-16T03:02:02.705Z,66.36
2022-09-16T03:04:30.352Z,66.71
2022-09-16T03:06:58.129Z,66.53
2022-09-16T03:09:25.327Z,66.83
2022-09-16T03:12:20.805Z,66.85
2022-09-16T03:14:51.040Z,66.96
2022-09-16T03:17:36.527Z,66.85
2022-09-16T03:20:45.453Z,67.20
2022-09-16T03:23:53.683Z,67.03
2022-09-16T03:26:48.998Z,66.71
2022-09-16T03:29:34.000Z,66.92
2022-09-16T03:32:30.197Z,66.60
2022-09-16T03:35:08.682Z,67.23
2022-09-16T03:37:38.521Z,67.04
2022-09-16T03:40:16.035Z,67.13
2022-09-16T03:42:45.145Z,67.14
2022-09-16T03:45:23.522Z,67.18
2022-09-16T03:47:53.023Z,66.95
2022-09-16T03:50:21.182Z,67.13
2022-09-16T03:52:48.094Z,67.45
2022-09-16T03:55:16.972Z,67.45
2022-09-16T03:57:44.305Z,67.67
2022-09-16T04:00:12.255Z,67.43
2022-09-16T04:02:39.617Z,67.80
2022-09-16T04:05:08.264Z,67.99
2022-09-16T04:07:35.783Z,68.03
2022-09-16T04:10:04.285Z,68.09
2022-09-16T04:12:31.952Z,68.00
2022-09-16T04:15:00.775Z,67.63
2022-09-16T04:17:33.080Z,67.86
2022-09-16T04:20:00.785Z,67.81
2022-09-16T04:22:31.758Z,67.83
2022-09-16T04:24:59.041Z,67.48
2022-09-16T04:27:26.665Z,67.49
2022-09-16T04:29:53.689Z,67.43
2022-09-16T04:32:21.548Z,67.34
2022-09-16T04:34:48.577Z,67.46
2022-09-16T04:37:16.141Z,67.35
2022-09-16T04:39:43.108Z,67.50
2022-09-16T04:42:12.401Z,67.21
2022-09-16T04:44:39.904Z,67.18
2022-09-16T04:47:07.193Z,67.27
2022-09-16T04:49:34.277Z,67.04
2022-09-16T04:52:02.557Z,67.14
2022-09-16T04:54:29.548Z,66.95
2022-09-16T04:56:57.834Z,67.19
2022-09-16T04:59:25.211Z,67.29
2022-09-16T05:01:52.404Z,67.32
2022-09-16T05:04:19.688Z,67.22
2022-09-16T05:06:46.860Z,66.84
2022-09-16T05:09:13.804Z,66.76
2022-09-16T05:11:41.707Z,66.64
2022-09-16T05:14:14.096Z,66.69
2022-09-16T05:16:41.731Z,66.79
2022-09-16T05:19:11.102Z,66.68
2022-09-16T05:21:39.423Z,66.67
2022-09-16T05:24:09.665Z,66.69
2022-09-16T05:26:41.894Z,66.44
2022-09-16T05:29:16.758Z,66.38
2022-09-16T05:31:47.691Z,66.43
2022-09-16T05:34:18.988Z,66.61
2022-09-16T05:36:48.217Z,66.92
2022-09-16T05:39:24.632Z,66.56
2022-09-16T05:42:00.361Z,66.97
2022-09-16T05:44:29.068Z,66.88
2022-09-16T05:46:56.949Z,67.10
2022-09-16T05:49:24.220Z,67.20
2022-09-16T05:51:52.003Z,67.25
2022-09-16T05:54:19.867Z,67.24
2022-09-16T05:56:47.891Z,67.24
2022-09-16T05:59:16.621Z,67.02
2022-09-16T06:01:44.576Z,67.14
2022-09-16T06:04:15.000Z,66.92
2022-09-16T06:06:44.778Z,66.68
2022-09-16T06:09:22.568Z,66.48
2022-09-16T06:11:54.470Z,66.83
2022-09-16T06:14:25.112Z,67.03
2022-09-16T06:16:52.023Z,66.69
2022-09-16T06:19:20.388Z,67.29
2022-09-16T06:21:48.087Z,66.62
2022-09-16T06:24:18.000Z,66.44
2022-09-16T06:26:47.089Z,66.10
2022-09-16T06:29:15.923Z,65.52
2022-09-16T06:31:43.785Z,66.12
2022-09-16T06:34:21.423Z,66.42
2022-09-16T06:36:48.546Z,66.07
2022-09-16T06:39:17.189Z,66.16
2022-09-16T06:41:44.500Z,66.40
2022-09-16T06:44:11.414Z,65.42
2022-09-16T06:46:38.825Z,65.69
2022-09-16T06:49:06.759Z,65.16
2022-09-16T06:51:35.040Z,65.52
2022-09-16T06:54:07.290Z,65.38
2022-09-16T06:56:37.655Z,65.09
2022-09-16T06:59:05.314Z,65.59
2022-09-16T07:01:33.320Z,65.35
2022-09-16T07:04:06.688Z,65.36
2022-09-16T07:09:22.233Z,64.31
2022-09-16T07:11:49.106Z,64.60
2022-09-16T07:14:16.258Z,64.47
2022-09-16T07:16:43.295Z,64.26
2022-09-16T07:19:11.284Z,64.57
2022-09-16T07:21:38.344Z,64.00
2022-09-16T07:24:05.829Z,63.57
2022-09-16T07:26:37.628Z,63.68
2022-09-16T07:29:08.085Z,63.66
2022-09-16T07:31:37.677Z,64.27
2022-09-16T07:34:08.217Z,63.90
2022-09-16T07:36:40.904Z,64.09
2022-09-16T07:39:08.971Z,63.70
2022-09-16T07:41:40.073Z,64.08
2022-09-16T07:44:10.160Z,63.85
2022-09-16T07:46:37.495Z,63.26
2022-09-16T07:49:07.499Z,63.02
2022-09-16T07:51:35.538Z,63.43
2022-09-16T07:54:06.857Z,62.37
2022-09-16T07:56:37.177Z,63.14
2022-09-16T07:59:07.711Z,62.50
2022-09-16T08:01:35.011Z,62.51
2022-09-16T08:04:03.001Z,63.00
2022-09-16T08:06:32.479Z,63.23
2022-09-16T08:09:10.028Z,62.78
2022-09-16T08:11:48.466Z,62.55
2022-09-16T08:14:15.573Z,62.95
2022-09-16T08:16:42.703Z,62.93
2022-09-16T08:19:09.897Z,63.33
2022-09-16T08:21:37.063Z,63.54
2022-09-16T08:24:04.146Z,63.43
2022-09-16T08:26:31.116Z,63.54
2022-09-16T08:29:08.531Z,63.81
2022-09-16T08:31:38.001Z,63.88
2022-09-16T08:34:06.163Z,64.56
2022-09-16T08:36:33.968Z,64.83
2022-09-16T08:39:01.983Z,64.83
2022-09-16T08:41:48.211Z,64.50
2022-09-16T08:44:42.332Z,64.96
2022-09-16T08:47:36.586Z,64.90
2022-09-16T08:50:12.938Z,65.39
2022-09-16T08:52:41.154Z,64.40
2022-09-16T08:55:31.692Z,64.40
2022-09-16T08:58:17.965Z,63.82
2022-09-16T09:00:49.738Z,62.31
2022-09-16T09:03:37.760Z,61.47
2022-09-16T09:06:54.168Z,61.47
2022-09-16T09:10:08.552Z,60.80
2022-09-16T09:12:47.212Z,60.68
2022-09-16T09:15:39.034Z,60.81
2022-09-16T09:18:20.442Z,61.18
2022-09-16T09:21:15.254Z,61.03
2022-09-16T09:24:13.003Z,61.22
2022-09-16T09:26:52.310Z,61.52
2022-09-16T09:29:48.746Z,61.61
2022-09-16T09:32:48.433Z,61.28
2022-09-16T09:35:28.069Z,61.31
2022-09-16T09:38:14.758Z,61.25
2022-09-16T09:40:59.209Z,60.96
2022-09-16T09:43:32.726Z,61.07
2022-09-16T09:46:07.307Z,61.65
2022-09-16T09:48:54.021Z,61.84
2022-09-16T09:51:49.356Z,62.02
2022-09-16T09:54:25.551Z,62.47
2022-09-16T09:57:22.729Z,62.21
2022-09-16T10:00:13.117Z,62.46
2022-09-16T10:02:48.922Z,61.96
2022-09-16T10:05:25.677Z,61.53
2022-09-16T10:07:57.804Z,61.21
2022-09-16T10:10:27.831Z,60.80
2022-09-16T10:12:54.825Z,60.76
2022-09-16T10:15:31.793Z,59.01
2022-09-16T10:18:02.094Z,58.57
2022-09-16T10:20:35.585Z,57.38
2022-09-16T10:23:26.346Z,58.05
2022-09-16T10:26:18.336Z,57.74
2022-09-16T10:29:19.504Z,57.15
2022-09-16T10:31:47.422Z,58.25
2022-09-16T10:34:34.399Z,58.62
2022-09-16T10:37:17.165Z,57.70
2022-09-16T10:39:51.689Z,57.85
2022-09-16T10:42:21.385Z,58.56
2022-09-16T10:44:51.503Z,58.15
2022-09-16T10:47:24.933Z,58.13
2022-09-16T10:49:56.705Z,58.25
2022-09-16T10:52:30.274Z,57.95
2022-09-16T10:54:57.891Z,58.58
2022-09-16T10:57:31.611Z,58.73
2022-09-16T11:00:19.712Z,58.54
2022-09-16T11:03:24.387Z,57.72
2022-09-16T11:06:13.953Z,58.46
2022-09-16T11:08:55.796Z,58.41
2022-09-16T11:11:37.879Z,58.03
2022-09-16T11:14:32.192Z,55.90
2022-09-16T11:17:50.029Z,55.95
2022-09-16T11:21:00.882Z,55.14
2022-09-16T11:23:57.604Z,55.87
2022-09-16T11:26:50.081Z,55.34
2022-09-16T11:29:45.869Z,55.54
2022-09-16T11:32:52.694Z,53.95
2022-09-16T11:36:04.642Z,53.22
2022-09-16T11:39:22.195Z,53.54
2022-09-16T11:42:22.595Z,53.65
2022-09-16T11:45:07.041Z,53.72
2022-09-16T11:47:50.742Z,54.08
2022-09-16T11:50:35.976Z,54.10
2022-09-16T11:53:28.296Z,54.56
2022-09-16T11:56:22.096Z,55.14
2022-09-16T11:59:10.590Z,56.02
2022-09-16T12:02:01.436Z,56.04
2022-09-16T12:05:36.768Z,56.68
2022-09-16T12:08:30.186Z,55.21
2022-09-16T12:11:37.721Z,54.57
2022-09-16T12:14:24.422Z,54.37
2022-09-16T12:17:06.862Z,55.39
2022-09-16T12:20:06.121Z,55.01
2022-09-16T12:22:50.553Z,54.74
2022-09-16T12:25:34.262Z,54.88
2022-09-16T12:28:10.979Z,54.39
2022-09-16T12:30:43.321Z,55.01
2022-09-16T12:33:28.694Z,53.95
2022-09-16T12:35:59.282Z,53.50
2022-09-16T12:38:26.694Z,53.59
2022-09-16T12:41:19.011Z,53.48
2022-09-16T12:44:30.478Z,53.42
2022-09-16T12:47:18.729Z,53.16
2022-09-16T12:50:09.940Z,53.23
2022-09-16T12:53:03.818Z,53.53
2022-09-16T12:55:39.837Z,52.55
2022-09-16T12:58:37.515Z,51.70
2022-09-16T13:01:21.513Z,52.88
2022-09-16T13:04:04.575Z,53.26
2022-09-16T13:06:37.343Z,53.46
2022-09-16T13:09:27.479Z,53.67
2022-09-16T13:12:35.417Z,53.68
2022-09-16T13:15:02.204Z,53.74
2022-09-16T13:17:39.847Z,53.86
2022-09-16T13:20:18.537Z,54.18
2022-09-16T13:22:51.675Z,54.17
2022-09-16T13:25:57.701Z,54.62
2022-09-16T13:28:35.222Z,54.57
2022-09-16T13:31:15.386Z,54.74
2022-09-16T13:33:48.703Z,54.71
2022-09-16T13:36:22.335Z,55.26
2022-09-16T13:38:55.844Z,54.97
2022-09-16T13:41:36.535Z,55.75
2022-09-16T13:44:39.274Z,55.52
2022-09-16T13:47:09.374Z,55.78
2022-09-16T13:50:05.211Z,54.97
2022-09-16T13:52:35.601Z,55.15
2022-09-16T13:55:11.768Z,54.96
2022-09-16T13:58:28.441Z,55.02
2022-09-16T14:01:09.167Z,54.70
2022-09-16T14:03:47.544Z,54.79
2022-09-16T14:06:46.307Z,54.89
2022-09-16T14:09:32.026Z,54.94
2022-09-16T14:13:00.408Z,55.31
2022-09-16T14:15:30.375Z,55.89
2022-09-16T14:18:01.880Z,55.69
2022-09-16T14:20:29.268Z,55.51
2022-09-16T14:23:17.927Z,55.46
2022-09-16T14:25:46.580Z,55.40
2022-09-16T14:28:24.774Z,55.14
2022-09-16T14:31:02.140Z,54.85
2022-09-16T14:33:56.409Z,54.96
2022-09-16T14:36:31.943Z,54.69
2022-09-16T14:39:02.570Z,54.68
2022-09-16T14:41:32.514Z,54.59
2022-09-16T14:44:08.920Z,54.68
2022-09-16T14:46:47.858Z,54.40
2022-09-16T14:49:17.237Z,54.06
2022-09-16T14:51:52.836Z,54.28
2022-09-16T14:54:22.814Z,54.56
2022-09-16T14:57:00.453Z,54.64
2022-09-16T14:59:39.914Z,54.81
2022-09-16T15:02:33.914Z,55.37
2022-09-16T15:05:36.136Z,55.50
2022-09-16T15:08:24.970Z,55.92
2022-09-16T15:10:57.515Z,55.74
2022-09-16T15:13:29.469Z,55.61
2022-09-16T15:16:04.272Z,55.19
2022-09-16T15:18:35.305Z,55.68
2022-09-16T15:21:16.983Z,55.38
2022-09-16T15:23:49.799Z,55.13
2022-09-16T15:26:24.725Z,55.70
2022-09-16T15:29:05.427Z,55.89
2022-09-16T15:31:40.942Z,55.30
2022-09-16T15:34:22.924Z,55.65
2022-09-16T15:36:58.884Z,55.77
2022-09-16T15:39:38.654Z,56.34
2022-09-16T15:42:20.525Z,56.52
2022-09-16T15:44:53.713Z,56.56
2022-09-16T15:47:23.905Z,57.06
2022-09-16T15:49:59.719Z,56.99
2022-09-16T15:52:28.478Z,57.31
2022-09-16T15:55:05.293Z,57.24
2022-09-16T15:57:43.922Z,57.82
2022-09-16T16:00:15.790Z,57.76
2022-09-16T16:02:57.738Z,57.97
2022-09-16T16:05:31.772Z,58.17
2022-09-16T16:08:05.000Z,58.31
2022-09-16T16:10:39.403Z,57.78
2022-09-16T16:13:06.463Z,57.93
2022-09-16T16:15:39.147Z,58.39
2022-09-16T16:18:09.514Z,58.15
2022-09-16T16:20:38.015Z,58.02
2022-09-16T16:23:05.056Z,58.27
2022-09-16T16:25:32.420Z,58.42
2022-09-16T16:27:59.711Z,58.49
2022-09-16T16:30:26.791Z,58.21
2022-09-16T16:32:53.985Z,58.48
2022-09-16T16:35:21.027Z,58.39
2022-09-16T16:37:48.067Z,58.75
2022-09-16T16:40:16.997Z,58.88
2022-09-16T16:42:44.703Z,58.53
2022-09-16T16:45:14.300Z,58.70
2022-09-16T16:47:42.736Z,58.78
2022-09-16T16:50:12.083Z,58.91
2022-09-16T16:52:40.064Z,58.68
2022-09-16T16:55:08.036Z,59.09
2022-09-16T16:57:35.056Z,59.04
2022-09-16T17:00:02.985Z,58.63
2022-09-16T17:02:30.080Z,59.06
2022-09-16T17:04:57.079Z,58.43
2022-09-16T17:07:26.709Z,58.84
2022-09-16T17:09:57.388Z,58.75
2022-09-16T17:12:25.477Z,58.73
2022-09-16T17:14:52.624Z,58.88
2022-09-16T17:17:19.770Z,59.01
2022-09-16T17:19:46.781Z,59.05
2022-09-16T17:22:13.734Z,59.24
2022-09-16T17:24:40.733Z,59.48
2022-09-16T17:27:07.961Z,59.07
2022-09-16T17:29:34.979Z,59.15
2022-09-16T17:32:03.263Z,58.96
2022-09-16T17:34:31.015Z,59.33
2022-09-16T17:36:58.306Z,59.27
2022-09-16T17:39:25.895Z,59.12
2022-09-16T17:41:54.497Z,59.49
2022-09-16T17:44:22.072Z,59.25
2022-09-16T17:46:49.190Z,59.42
2022-09-16T17:49:23.002Z,59.41
2022-09-16T17:51:54.028Z,59.34
2022-09-16T17:54:22.263Z,59.14
2022-09-16T17:56:49.441Z,59.30
2022-09-16T17:59:18.729Z,59.34
2022-09-16T18:01:48.217Z,59.13
2022-09-16T18:04:17.662Z,59.79
2022-09-16T18:06:46.941Z,59.70
2022-09-16T18:09:16.355Z,59.51
2022-09-16T18:11:44.187Z,59.59
2022-09-16T18:14:13.318Z,59.48
2022-09-16T18:16:42.217Z,59.72
2022-09-16T18:19:10.170Z,59.88
2022-09-16T18:21:38.275Z,59.67
2022-09-16T18:24:11.030Z,59.34
2022-09-16T18:26:39.317Z,59.70
2022-09-16T18:29:10.114Z,59.77
2022-09-16T18:31:44.623Z,59.72
2022-09-16T18:34:12.755Z,60.02
2022-09-16T18:36:40.329Z,59.94
2022-09-16T18:39:12.718Z,60.13
2022-09-16T18:41:41.632Z,60.16
2022-09-16T18:44:26.868Z,60.68
2022-09-16T18:46:54.123Z,60.70
2022-09-16T18:49:23.957Z,60.86
2022-09-16T18:51:53.263Z,60.95
2022-09-16T18:54:26.031Z,61.04
2022-09-16T18:56:58.947Z,61.52
2022-09-16T18:59:30.345Z,61.20
2022-09-16T19:02:01.050Z,61.12
2022-09-16T19:04:31.070Z,61.04
2022-09-16T19:07:07.228Z,61.90
2022-09-16T19:09:37.627Z,61.40
2022-09-16T19:12:06.015Z,62.06
2022-09-16T19:14:33.147Z,62.42
2022-09-16T19:17:00.587Z,62.18
2022-09-16T19:19:27.696Z,62.80
2022-09-16T19:21:55.499Z,62.90
2022-09-16T19:24:25.011Z,62.58
2022-09-16T19:26:54.494Z,62.41
2022-09-16T19:29:22.058Z,62.32
2022-09-16T19:31:52.057Z,62.27
2022-09-16T19:34:19.976Z,63.01
2022-09-16T19:36:47.266Z,62.16
2022-09-16T19:39:14.674Z,62.42
2022-09-16T19:41:42.893Z,62.28
2022-09-16T19:44:16.299Z,63.02
2022-09-16T19:46:44.969Z,62.67
2022-09-16T19:49:20.958Z,62.52
2022-09-16T19:51:49.691Z,62.58
2022-09-16T19:54:17.914Z,63.20
2022-09-16T19:56:50.436Z,62.88
2022-09-16T19:59:19.313Z,63.14
2022-09-16T20:01:47.712Z,63.17
2022-09-16T20:04:15.685Z,63.16
2022-09-16T20:06:43.050Z,63.01
2022-09-16T20:09:12.788Z,63.36
2022-09-16T20:11:46.424Z,62.87
2022-09-16T20:14:21.855Z,62.68
2022-09-16T20:16:51.332Z,62.56
2022-09-16T20:19:22.075Z,62.36
2022-09-16T20:21:49.537Z,62.44
2022-09-16T20:24:20.936Z,62.66
2022-09-16T20:26:51.217Z,62.42
2022-09-16T20:29:19.868Z,62.67
2022-09-16T20:31:53.091Z,62.55
2022-09-16T20:34:20.325Z,62.42
2022-09-16T20:36:47.766Z,62.42
2022-09-16T20:39:15.726Z,62.46
2022-09-16T20:41:45.594Z,62.48
2022-09-16T20:44:15.425Z,62.58
2022-09-16T20:46:43.097Z,62.75
2022-09-16T20:49:15.964Z,62.83
2022-09-16T20:51:43.728Z,62.82
2022-09-16T20:54:14.026Z,62.55
2022-09-16T20:56:45.019Z,62.48
2022-09-16T20:59:14.377Z,62.71
2022-09-16T21:01:42.049Z,62.53
2022-09-16T21:04:16.395Z,62.80
2022-09-16T21:06:43.768Z,62.71
2022-09-16T21:09:14.186Z,62.90
2022-09-16T21:11:44.373Z,63.15
2022-09-16T21:14:17.321Z,62.75
2022-09-16T21:16:46.390Z,62.64
2022-09-16T21:19:14.078Z,62.53
2022-09-16T21:21:48.802Z,62.67
2022-09-16T21:24:17.902Z,62.37
2022-09-16T21:26:46.275Z,62.55
2022-09-16T21:29:21.191Z,62.32
2022-09-16T21:31:48.947Z,62.49
2022-09-16T21:34:20.422Z,62.42
2022-09-16T21:36:49.642Z,62.34
2022-09-16T21:39:19.516Z,62.26
2022-09-16T21:41:48.785Z,62.28
2022-09-16T21:44:16.932Z,62.40
2022-09-16T21:46:46.358Z,62.46
2022-09-16T21:49:24.129Z,62.28
2022-09-16T21:51:55.318Z,62.44
2022-09-16T21:54:23.457Z,62.19
2022-09-16T21:56:52.166Z,62.45
2022-09-16T21:59:20.267Z,62.80
2022-09-16T22:01:50.187Z,62.67
2022-09-16T22:04:24.295Z,62.60
2022-09-16T22:06:54.891Z,62.90
2022-09-16T22:09:22.706Z,63.04
2022-09-16T22:11:50.344Z,62.92
2022-09-16T22:14:18.980Z,62.81
2022-09-16T22:16:46.385Z,63.20
2022-09-16T22:19:18.911Z,62.59
2022-09-16T22:21:49.828Z,62.78
2022-09-16T22:24:20.376Z,62.61
2022-09-16T22:26:49.891Z,62.98
2022-09-16T22:29:17.167Z,63.09
2022-09-16T22:31:44.413Z,63.04
2022-09-16T22:34:11.876Z,62.98
2022-09-16T22:36:39.406Z,62.99
2022-09-16T22:39:19.480Z,62.79
2022-09-16T22:41:47.350Z,62.89
2022-09-16T22:44:14.742Z,62.91
2022-09-16T22:46:46.981Z,63.22
2022-09-16T22:49:15.708Z,63.43
2022-09-16T22:51:43.133Z,63.47
2022-09-16T22:54:13.687Z,63.43
2022-09-16T22:56:41.193Z,63.58
2022-09-16T22:59:16.407Z,63.38
2022-09-16T23:01:43.730Z,63.45
2022-09-16T23:04:10.799Z,63.04
2022-09-16T23:06:39.528Z,63.28
2022-09-16T23:09:09.379Z,63.41
2022-09-16T23:11:37.044Z,63.38
2022-09-16T23:14:06.421Z,64.20
2022-09-16T23:16:36.762Z,63.94
2022-09-16T23:19:07.786Z,63.79
2022-09-16T23:21:35.627Z,63.37
2022-09-16T23:24:04.933Z,63.35
2022-09-16T23:26:35.204Z,63.51
2022-09-16T23:29:06.786Z,63.41
2022-09-16T23:31:40.212Z,63.43
2022-09-16T23:34:20.689Z,63.23
2022-09-16T23:36:49.089Z,63.53
2022-09-16T23:39:17.014Z,63.05
2022-09-16T23:41:45.098Z,63.42
2022-09-16T23:44:14.840Z,64.08
2022-09-16T23:46:42.087Z,64.46
2022-09-16T23:49:10.093Z,64.34
2022-09-16T23:51:37.735Z,64.07
2022-09-16T23:54:04.852Z,63.93
2022-09-16T23:56:32.057Z,64.26
2022-09-16T23:59:00.765Z,63.97
